sensor_id;sensor_type;location;lat;lon;timestamp;pressure;altitude;pressure_sealevel;temperature;humidity
48527;BME280;34317;51.660;5.824;2022-10-12T00:02:23;102481.28;;;9.58;55.58
48527;BME280;34317;51.660;5.824;2022-10-12T00:04:50;102486.56;;;9.58;55.70
48527;BME280;34317;51.660;5.824;2022-10-12T00:07:17;102485.72;;;9.57;55.55
48527;BME280;34317;51.660;5.824;2022-10-12T00:09:44;102475.16;;;9.55;55.55
48527;BME280;34317;51.660;5.824;2022-10-12T00:12:11;102484.88;;;9.53;55.47
48527;BME280;34317;51.660;5.824;2022-10-12T00:14:38;102484.88;;;9.53;55.67
48527;BME280;34317;51.660;5.824;2022-10-12T00:17:05;102488.41;;;9.52;56.06
48527;BME280;34317;51.660;5.824;2022-10-12T00:19:32;102486.66;;;9.51;55.69
48527;BME280;34317;51.660;5.824;2022-10-12T00:21:59;102479.59;;;9.53;55.75
48527;BME280;34317;51.660;5.824;2022-10-12T00:24:26;102479.59;;;9.53;55.90
48527;BME280;34317;51.660;5.824;2022-10-12T00:26:53;102480.44;;;9.54;56.23
48527;BME280;34317;51.660;5.824;2022-10-12T00:29:20;102487.50;;;9.55;55.95
48527;BME280;34317;51.660;5.824;2022-10-12T00:31:47;102477.78;;;9.55;55.86
48527;BME280;34317;51.660;5.824;2022-10-12T00:34:14;102481.31;;;9.54;56.07
48527;BME280;34317;51.660;5.824;2022-10-12T00:36:41;102474.22;;;9.57;56.03
48527;BME280;34317;51.660;5.824;2022-10-12T00:39:09;102468.94;;;9.57;56.21
48527;BME280;34317;51.660;5.824;2022-10-12T00:41:40;102463.66;;;9.57;56.25
48527;BME280;34317;51.660;5.824;2022-10-12T00:44:32;102465.41;;;9.58;56.07
48527;BME280;34317;51.660;5.824;2022-10-12T00:47:03;102463.66;;;9.57;56.33
48527;BME280;34317;51.660;5.824;2022-10-12T00:49:32;102468.94;;;9.57;55.92
48527;BME280;34317;51.660;5.824;2022-10-12T00:52:04;102478.66;;;9.56;56.19
48527;BME280;34317;51.660;5.824;2022-10-12T00:54:35;102480.44;;;9.55;56.24
48527;BME280;34317;51.660;5.824;2022-10-12T00:57:14;102481.31;;;9.54;55.85
48527;BME280;34317;51.660;5.824;2022-10-12T00:59:52;102486.59;;;9.54;56.05
48527;BME280;34317;51.660;5.824;2022-10-12T01:02:23;102480.47;;;9.52;56.04
48527;BME280;34317;51.660;5.824;2022-10-12T01:04:52;102479.63;;;9.50;56.21
48527;BME280;34317;51.660;5.824;2022-10-12T01:07:19;102484.03;;;9.50;56.20
48527;BME280;34317;51.660;5.824;2022-10-12T01:09:46;102469.97;;;9.48;55.78
48527;BME280;34317;51.660;5.824;2022-10-12T01:12:14;102479.66;;;9.47;55.96
48527;BME280;34317;51.660;5.824;2022-10-12T01:14:42;102480.56;;;9.46;56.15
48527;BME280;34317;51.660;5.824;2022-10-12T01:17:25;102475.31;;;9.43;55.98
48527;BME280;34317;51.660;5.824;2022-10-12T01:21:11;102470.94;;;9.42;55.74
48527;BME280;34317;51.660;5.824;2022-10-12T01:26:04;102465.66;;;9.39;56.17
48527;BME280;34317;51.660;5.824;2022-10-12T01:29:08;102463.94;;;9.38;55.93
48527;BME280;34317;51.660;5.824;2022-10-12T01:31:48;102462.19;;;9.37;56.23
48527;BME280;34317;51.660;5.824;2022-10-12T01:37:20;102451.59;;;9.37;56.47
48527;BME280;34317;51.660;5.824;2022-10-12T01:39:52;102454.22;;;9.39;56.29
48527;BME280;34317;51.660;5.824;2022-10-12T01:42:26;102439.22;;;9.39;56.38
48527;BME280;34317;51.660;5.824;2022-10-12T01:45:11;102439.19;;;9.42;56.30
48527;BME280;34317;51.660;5.824;2022-10-12T01:47:40;102438.28;;;9.43;56.42
48527;BME280;34317;51.660;5.824;2022-10-12T01:50:11;102432.97;;;9.45;56.36
48527;BME280;34317;51.660;5.824;2022-10-12T02:00:50;102426.72;;;9.50;56.54
48527;BME280;34317;51.660;5.824;2022-10-12T02:03:26;102424.06;;;9.52;56.60
48527;BME280;34317;51.660;5.824;2022-10-12T02:06:13;102423.19;;;9.51;56.46
48527;BME280;34317;51.660;5.824;2022-10-12T02:09:10;102416.13;;;9.50;56.49
48527;BME280;34317;51.660;5.824;2022-10-12T02:11:41;102417.91;;;9.51;56.43
48527;BME280;34317;51.660;5.824;2022-10-12T02:14:19;102420.50;;;9.53;56.66
48527;BME280;34317;51.660;5.824;2022-10-12T02:16:50;102409.06;;;9.52;56.84
48527;BME280;34317;51.660;5.824;2022-10-12T02:19:24;102416.09;;;9.53;56.63
48527;BME280;34317;51.660;5.824;2022-10-12T02:21:58;102421.41;;;9.53;56.62
48527;BME280;34317;51.660;5.824;2022-10-12T02:24:27;102416.09;;;9.53;56.58
48527;BME280;34317;51.660;5.824;2022-10-12T02:26:57;102410.81;;;9.53;56.72
48527;BME280;34317;51.660;5.824;2022-10-12T02:29:30;102409.06;;;9.52;56.71
48527;BME280;34317;51.660;5.824;2022-10-12T02:32:05;102415.28;;;9.50;56.63
48527;BME280;34317;51.660;5.824;2022-10-12T02:34:45;102408.22;;;9.49;57.07
48527;BME280;34317;51.660;5.824;2022-10-12T02:37:42;102421.47;;;9.47;56.71
48527;BME280;34317;51.660;5.824;2022-10-12T02:40:12;102419.72;;;9.46;56.60
48527;BME280;34317;51.660;5.824;2022-10-12T02:42:48;102407.41;;;9.45;56.93
48527;BME280;34317;51.660;5.824;2022-10-12T02:45:38;102403.91;;;9.43;56.78
48527;BME280;34317;51.660;5.824;2022-10-12T02:48:08;102405.69;;;9.41;56.66
48527;BME280;34317;51.660;5.824;2022-10-12T02:50:37;102401.31;;;9.40;56.52
48527;BME280;34317;51.660;5.824;2022-10-12T02:53:05;102401.34;;;9.37;56.35
48527;BME280;34317;51.660;5.824;2022-10-12T02:55:37;102402.25;;;9.36;56.93
48527;BME280;34317;51.660;5.824;2022-10-12T02:58:04;102400.50;;;9.35;56.30
48527;BME280;34317;51.660;5.824;2022-10-12T03:00:32;102404.03;;;9.34;56.36
48527;BME280;34317;51.660;5.824;2022-10-12T03:03:00;102397.91;;;9.30;56.20
48527;BME280;34317;51.660;5.824;2022-10-12T03:05:27;102397.97;;;9.29;56.46
48527;BME280;34317;51.660;5.824;2022-10-12T03:07:54;102398.00;;;9.26;56.45
48527;BME280;34317;51.660;5.824;2022-10-12T03:10:21;102397.16;;;9.24;56.36
48527;BME280;34317;51.660;5.824;2022-10-12T03:12:48;102395.38;;;9.23;56.31
48527;BME280;34317;51.660;5.824;2022-10-12T03:15:16;102390.16;;;9.20;56.46
48527;BME280;34317;51.660;5.824;2022-10-12T03:17:43;102391.06;;;9.17;56.59
48527;BME280;34317;51.660;5.824;2022-10-12T03:20:10;102388.47;;;9.15;56.50
48527;BME280;34317;51.660;5.824;2022-10-12T03:22:37;102387.63;;;9.12;56.22
48527;BME280;34317;51.660;5.824;2022-10-12T03:25:04;102385.00;;;9.10;56.62
48527;BME280;34317;51.660;5.824;2022-10-12T03:27:31;102388.53;;;9.09;56.33
48527;BME280;34317;51.660;5.824;2022-10-12T03:29:58;102381.53;;;9.07;56.60
48527;BME280;34317;51.660;5.824;2022-10-12T03:32:26;102379.81;;;9.04;56.66
48527;BME280;34317;51.660;5.824;2022-10-12T03:34:53;102387.75;;;9.04;56.63
48527;BME280;34317;51.660;5.824;2022-10-12T03:37:20;102393.94;;;9.00;56.35
48527;BME280;34317;51.660;5.824;2022-10-12T03:39:47;102392.22;;;8.99;56.29
48527;BME280;34317;51.660;5.824;2022-10-12T03:42:14;102394.88;;;8.98;56.72
48527;BME280;34317;51.660;5.824;2022-10-12T03:44:41;102383.47;;;8.94;56.70
48527;BME280;34317;51.660;5.824;2022-10-12T03:47:08;102387.00;;;8.93;56.84
48527;BME280;34317;51.660;5.824;2022-10-12T03:49:35;102385.25;;;8.92;56.67
48527;BME280;34317;51.660;5.824;2022-10-12T03:52:02;102383.50;;;8.91;56.86
48527;BME280;34317;51.660;5.824;2022-10-12T03:54:29;102372.91;;;8.91;57.02
48527;BME280;34317;51.660;5.824;2022-10-12T03:56:57;102382.63;;;8.90;56.95
48527;BME280;34317;51.660;5.824;2022-10-12T03:59:24;102372.97;;;8.88;56.68
48527;BME280;34317;51.660;5.824;2022-10-12T04:01:51;102381.78;;;8.87;56.92
48527;BME280;34317;51.660;5.824;2022-10-12T04:04:18;102378.28;;;8.85;56.63
48527;BME280;34317;51.660;5.824;2022-10-12T04:06:45;102373.06;;;8.82;56.68
48527;BME280;34317;51.660;5.824;2022-10-12T04:09:12;102375.72;;;8.80;56.65
48527;BME280;34317;51.660;5.824;2022-10-12T04:11:39;102368.75;;;8.76;56.56
48527;BME280;34317;51.660;5.824;2022-10-12T04:14:06;102374.91;;;8.73;56.63
48527;BME280;34317;51.660;5.824;2022-10-12T04:16:33;102372.28;;;8.72;56.56
48527;BME280;34317;51.660;5.824;2022-10-12T04:19:00;102364.41;;;8.70;56.88
48527;BME280;34317;51.660;5.824;2022-10-12T04:21:29;102366.19;;;8.68;56.83
48527;BME280;34317;51.660;5.824;2022-10-12T04:23:57;102367.94;;;8.66;56.47
48527;BME280;34317;51.660;5.824;2022-10-12T04:26:24;102366.22;;;8.65;56.62
48527;BME280;34317;51.660;5.824;2022-10-12T04:28:51;102362.72;;;8.63;56.66
48527;BME280;34317;51.660;5.824;2022-10-12T04:31:18;102368.03;;;8.60;56.60
48527;BME280;34317;51.660;5.824;2022-10-12T04:33:45;102368.09;;;8.57;56.42
48527;BME280;34317;51.660;5.824;2022-10-12T04:36:12;102357.56;;;8.54;56.72
48527;BME280;34317;51.660;5.824;2022-10-12T04:38:39;102357.56;;;8.54;56.69
48527;BME280;34317;51.660;5.824;2022-10-12T04:41:06;102357.59;;;8.51;56.72
48527;BME280;34317;51.660;5.824;2022-10-12T04:43:33;102359.38;;;8.49;56.73
48527;BME280;34317;51.660;5.824;2022-10-12T04:46:00;102356.81;;;8.44;56.68
48527;BME280;34317;51.660;5.824;2022-10-12T04:48:27;102367.34;;;8.41;56.60
48527;BME280;34317;51.660;5.824;2022-10-12T04:50:54;102366.50;;;8.37;56.62
48527;BME280;34317;51.660;5.824;2022-10-12T04:53:21;102378.84;;;8.35;56.66
48527;BME280;34317;51.660;5.824;2022-10-12T04:55:48;102374.50;;;8.33;56.52
48527;BME280;34317;51.660;5.824;2022-10-12T04:58:15;102374.50;;;8.30;56.48
48527;BME280;34317;51.660;5.824;2022-10-12T05:00:42;102375.44;;;8.27;56.61
48527;BME280;34317;51.660;5.824;2022-10-12T05:03:10;102368.44;;;8.23;56.71
48527;BME280;34317;51.660;5.824;2022-10-12T05:05:37;102370.19;;;8.21;56.46
48527;BME280;34317;51.660;5.824;2022-10-12T05:08:04;102371.13;;;8.18;56.61
48527;BME280;34317;51.660;5.824;2022-10-12T05:10:32;102366.75;;;8.16;56.35
48527;BME280;34317;51.660;5.824;2022-10-12T05:12:59;102365.00;;;8.15;56.48
48527;BME280;34317;51.660;5.824;2022-10-12T05:15:26;102365.03;;;8.12;56.42
48527;BME280;34317;51.660;5.824;2022-10-12T05:17:53;102365.03;;;8.12;56.56
48527;BME280;34317;51.660;5.824;2022-10-12T05:20:20;102365.06;;;8.09;56.88
48527;BME280;34317;51.660;5.824;2022-10-12T05:22:48;102356.28;;;8.07;56.73
48527;BME280;34317;51.660;5.824;2022-10-12T05:25:15;102365.09;;;8.06;56.68
48527;BME280;34317;51.660;5.824;2022-10-12T05:27:42;102358.06;;;8.05;56.83
48527;BME280;34317;51.660;5.824;2022-10-12T05:30:10;102351.03;;;8.04;56.52
48527;BME280;34317;51.660;5.824;2022-10-12T05:32:37;102355.47;;;8.02;56.83
48527;BME280;34317;51.660;5.824;2022-10-12T05:35:05;102354.59;;;7.99;56.67
48527;BME280;34317;51.660;5.824;2022-10-12T05:37:32;102361.66;;;7.97;56.91
48527;BME280;34317;51.660;5.824;2022-10-12T05:39:59;102360.78;;;7.97;56.96
48527;BME280;34317;51.660;5.824;2022-10-12T05:42:27;102359.91;;;7.96;56.81
48527;BME280;34317;51.660;5.824;2022-10-12T05:44:54;102358.16;;;7.95;56.80
48527;BME280;34317;51.660;5.824;2022-10-12T05:47:21;102361.69;;;7.94;57.12
48527;BME280;34317;51.660;5.824;2022-10-12T05:49:48;102359.94;;;7.93;57.19
48527;BME280;34317;51.660;5.824;2022-10-12T05:52:15;102353.81;;;7.91;57.01
48527;BME280;34317;51.660;5.824;2022-10-12T05:54:42;102365.25;;;7.90;57.06
48527;BME280;34317;51.660;5.824;2022-10-12T05:57:09;102363.50;;;7.89;57.03
48527;BME280;34317;51.660;5.824;2022-10-12T05:59:36;102352.97;;;7.89;57.12
48527;BME280;34317;51.660;5.824;2022-10-12T06:02:03;102365.25;;;7.90;57.09
48527;BME280;34317;51.660;5.824;2022-10-12T06:04:30;102365.25;;;7.90;57.50
48527;BME280;34317;51.660;5.824;2022-10-12T06:06:57;102355.56;;;7.91;57.47
48527;BME280;34317;51.660;5.824;2022-10-12T06:09:24;102361.72;;;7.91;57.33
48527;BME280;34317;51.660;5.824;2022-10-12T06:11:51;102354.69;;;7.92;57.15
48527;BME280;34317;51.660;5.824;2022-10-12T06:14:18;102356.41;;;7.94;57.19
48527;BME280;34317;51.660;5.824;2022-10-12T06:16:45;102352.88;;;7.95;57.39
48527;BME280;34317;51.660;5.824;2022-10-12T06:19:14;102358.13;;;7.98;57.55
48527;BME280;34317;51.660;5.824;2022-10-12T06:21:41;102345.81;;;8.01;57.28
48527;BME280;34317;51.660;5.824;2022-10-12T06:24:08;102345.75;;;8.04;57.42
48527;BME280;34317;51.660;5.824;2022-10-12T06:26:35;102349.25;;;8.07;57.77
48527;BME280;34317;51.660;5.824;2022-10-12T06:29:02;102357.13;;;8.10;58.02
48527;BME280;34317;51.660;5.824;2022-10-12T06:31:29;102361.47;;;8.16;58.01
48527;BME280;34317;51.660;5.824;2022-10-12T06:33:57;102354.38;;;8.21;57.91
48527;BME280;34317;51.660;5.824;2022-10-12T06:36:24;102345.50;;;8.27;58.01
48527;BME280;34317;51.660;5.824;2022-10-12T06:38:51;102346.34;;;8.32;58.03
48527;BME280;34317;51.660;5.824;2022-10-12T06:41:19;102340.09;;;8.37;57.96
48527;BME280;34317;51.660;5.824;2022-10-12T06:43:46;102352.38;;;8.45;58.36
48527;BME280;34317;51.660;5.824;2022-10-12T06:46:13;102348.78;;;8.52;58.33
48527;BME280;34317;51.660;5.824;2022-10-12T06:48:40;102346.91;;;8.60;58.57
48527;BME280;34317;51.660;5.824;2022-10-12T06:51:07;102350.34;;;8.68;58.58
48527;BME280;34317;51.660;5.824;2022-10-12T06:53:34;102355.53;;;8.74;58.40
48527;BME280;34317;51.660;5.824;2022-10-12T06:56:06;102350.16;;;8.81;58.54
48527;BME280;34317;51.660;5.824;2022-10-12T06:58:33;102343.06;;;8.86;58.73
48527;BME280;34317;51.660;5.824;2022-10-12T07:01:05;102348.25;;;8.92;58.75
48527;BME280;34317;51.660;5.824;2022-10-12T07:03:33;102346.38;;;9.00;58.45
48527;BME280;34317;51.660;5.824;2022-10-12T07:06:11;102344.53;;;9.05;58.74
48527;BME280;34317;51.660;5.824;2022-10-12T07:08:40;102347.94;;;9.13;58.60
48527;BME280;34317;51.660;5.824;2022-10-12T07:11:09;102351.41;;;9.19;58.71
48527;BME280;34317;51.660;5.824;2022-10-12T07:13:37;102349.53;;;9.27;59.21
48527;BME280;34317;51.660;5.824;2022-10-12T07:16:05;102345.88;;;9.34;58.98
48527;BME280;34317;51.660;5.824;2022-10-12T07:18:32;102351.00;;;9.43;59.35
48527;BME280;34317;51.660;5.824;2022-10-12T07:20:59;102344.69;;;9.53;59.39
48527;BME280;34317;51.660;5.824;2022-10-12T07:23:32;102347.19;;;9.63;59.48
48527;BME280;34317;51.660;5.824;2022-10-12T07:26:00;102346.09;;;9.74;59.73
48527;BME280;34317;51.660;5.824;2022-10-12T07:28:27;102346.81;;;9.84;59.65
48527;BME280;34317;51.660;5.824;2022-10-12T07:30:59;102336.06;;;9.93;59.94
48527;BME280;34317;51.660;5.824;2022-10-12T07:33:29;102338.50;;;10.04;59.66
48527;BME280;34317;51.660;5.824;2022-10-12T07:35:57;102335.63;;;10.15;59.42
48527;BME280;34317;51.660;5.824;2022-10-12T07:38:40;102340.75;;;10.24;59.73
48527;BME280;34317;51.660;5.824;2022-10-12T07:41:11;102330.03;;;10.33;59.64
48527;BME280;34317;51.660;5.824;2022-10-12T07:43:38;102331.66;;;10.41;59.42
48527;BME280;34317;51.660;5.824;2022-10-12T07:46:06;102336.75;;;10.50;59.44
48527;BME280;34317;51.660;5.824;2022-10-12T07:48:33;102327.78;;;10.57;59.39
48527;BME280;34317;51.660;5.824;2022-10-12T07:51:08;102331.13;;;10.65;59.49
48527;BME280;34317;51.660;5.824;2022-10-12T07:53:38;102329.25;;;10.70;59.28
48527;BME280;34317;51.660;5.824;2022-10-12T07:56:07;102331.69;;;10.81;59.13
48527;BME280;34317;51.660;5.824;2022-10-12T07:58:41;102333.25;;;10.90;59.43
48527;BME280;34317;51.660;5.824;2022-10-12T08:01:09;102333.97;;;10.98;59.26
48527;BME280;34317;51.660;5.824;2022-10-12T08:03:36;102338.16;;;11.07;59.26
48527;BME280;34317;51.660;5.824;2022-10-12T08:06:12;102331.78;;;11.16;59.54
48527;BME280;34317;51.660;5.824;2022-10-12T08:08:39;102341.34;;;11.23;59.35
48527;BME280;34317;51.660;5.824;2022-10-12T08:11:07;102350.88;;;11.30;59.42
48527;BME280;34317;51.660;5.824;2022-10-12T08:13:35;102347.16;;;11.37;59.64
48527;BME280;34317;51.660;5.824;2022-10-12T08:16:04;102345.28;;;11.42;59.52
48527;BME280;34317;51.660;5.824;2022-10-12T08:18:31;102346.03;;;11.49;59.78
48527;BME280;34317;51.660;5.824;2022-10-12T08:20:58;102345.00;;;11.55;59.55
48527;BME280;34317;51.660;5.824;2022-10-12T08:23:25;102346.56;;;11.62;59.56
48527;BME280;34317;51.660;5.824;2022-10-12T08:25:55;102341.13;;;11.68;59.63
48527;BME280;34317;51.660;5.824;2022-10-12T08:28:23;102340.03;;;11.75;59.60
48527;BME280;34317;51.660;5.824;2022-10-12T08:30:50;102347.84;;;11.81;59.48
48527;BME280;34317;51.660;5.824;2022-10-12T08:33:18;102342.38;;;11.87;59.53
48527;BME280;34317;51.660;5.824;2022-10-12T08:35:46;102345.81;;;11.93;59.48
48527;BME280;34317;51.660;5.824;2022-10-12T08:38:14;102346.50;;;11.99;59.46
48527;BME280;34317;51.660;5.824;2022-10-12T08:40:48;102338.44;;;12.04;59.43
48527;BME280;34317;51.660;5.824;2022-10-12T08:46:08;102341.56;;;12.18;59.42
48527;BME280;34317;51.660;5.824;2022-10-12T08:51:19;102342.03;;;12.34;59.27
48527;BME280;34317;51.660;5.824;2022-10-12T08:54:00;102340.88;;;12.43;59.37
48527;BME280;34317;51.660;5.824;2022-10-12T08:56:28;102335.28;;;12.52;59.31
48527;BME280;34317;51.660;5.824;2022-10-12T08:58:55;102337.66;;;12.63;59.22
48527;BME280;34317;51.660;5.824;2022-10-12T09:01:27;102338.22;;;12.73;59.04
48527;BME280;34317;51.660;5.824;2022-10-12T09:04:32;102330.91;;;12.81;59.00
48527;BME280;34317;51.660;5.824;2022-10-12T09:07:17;102338.53;;;12.92;58.90
48527;BME280;34317;51.660;5.824;2022-10-12T09:15:59;102347.56;;;13.16;58.84
48527;BME280;34317;51.660;5.824;2022-10-12T09:18:42;102338.38;;;13.26;58.85
48527;BME280;34317;51.660;5.824;2022-10-12T09:21:19;102332.66;;;13.38;58.43
48527;BME280;34317;51.660;5.824;2022-10-12T09:23:47;102337.72;;;13.46;58.39
48527;BME280;34317;51.660;5.824;2022-10-12T09:26:20;102333.91;;;13.55;58.45
48527;BME280;34317;51.660;5.824;2022-10-12T09:28:56;102329.94;;;13.67;58.33
48527;BME280;34317;51.660;5.824;2022-10-12T09:31:54;102329.59;;;13.77;58.43
48527;BME280;34317;51.660;5.824;2022-10-12T09:34:23;102334.47;;;13.90;58.57
48527;BME280;34317;51.660;5.824;2022-10-12T09:36:50;102332.31;;;14.01;58.48
48527;BME280;34317;51.660;5.824;2022-10-12T09:39:19;102330.13;;;14.12;58.17
48527;BME280;34317;51.660;5.824;2022-10-12T09:41:52;102335.03;;;14.25;58.02
48527;BME280;34317;51.660;5.824;2022-10-12T09:44:28;102343.50;;;14.36;58.19
48527;BME280;34317;51.660;5.824;2022-10-12T09:47:03;102339.44;;;14.49;58.19
48527;BME280;34317;51.660;5.824;2022-10-12T09:49:42;102337.16;;;14.64;57.94
48527;BME280;34317;51.660;5.824;2022-10-12T09:52:12;102333.09;;;14.77;57.71
48527;BME280;34317;51.660;5.824;2022-10-12T09:54:45;102337.94;;;14.89;57.46
48527;BME280;34317;51.660;5.824;2022-10-12T09:57:25;102335.72;;;15.01;57.34
48527;BME280;34317;51.660;5.824;2022-10-12T09:59:54;102333.47;;;15.12;57.20
48527;BME280;34317;51.660;5.824;2022-10-12T10:02:23;102324.19;;;15.22;56.56
48527;BME280;34317;51.660;5.824;2022-10-12T10:04:51;102319.44;;;15.29;56.46
48527;BME280;34317;51.660;5.824;2022-10-12T10:07:34;102325.41;;;15.35;56.17
48527;BME280;34317;51.660;5.824;2022-10-12T10:20:52;102304.34;;;15.70;55.73
48527;BME280;34317;51.660;5.824;2022-10-12T10:23:24;102312.97;;;15.79;55.82
48527;BME280;34317;51.660;5.824;2022-10-12T10:26:04;102308.94;;;15.89;55.82
48527;BME280;34317;51.660;5.824;2022-10-12T10:28:34;102304.78;;;16.02;55.83
48527;BME280;34317;51.660;5.824;2022-10-12T10:31:15;102304.25;;;16.14;55.54
48527;BME280;34317;51.660;5.824;2022-10-12T10:33:43;102305.41;;;16.28;55.66
48527;BME280;34317;51.660;5.824;2022-10-12T10:36:24;102295.03;;;16.41;54.88
48527;BME280;34317;51.660;5.824;2022-10-12T10:38:56;102294.56;;;16.50;54.88
48527;BME280;34317;51.660;5.824;2022-10-12T10:41:29;102294.88;;;16.63;54.62
48527;BME280;34317;51.660;5.824;2022-10-12T10:43:57;102288.94;;;16.75;54.14
48527;BME280;34317;51.660;5.824;2022-10-12T10:46:27;102289.41;;;16.85;54.06
48527;BME280;34317;51.660;5.824;2022-10-12T10:48:59;102295.19;;;16.95;54.11
48527;BME280;34317;51.660;5.824;2022-10-12T10:51:57;102289.16;;;17.08;53.64
48527;BME280;34317;51.660;5.824;2022-10-12T10:54:30;102288.59;;;17.19;53.80
48527;BME280;34317;51.660;5.824;2022-10-12T10:59:38;102289.59;;;17.36;52.64
48527;BME280;34317;51.660;5.824;2022-10-12T11:07:38;102284.53;;;17.64;52.15
48527;BME280;34317;51.660;5.824;2022-10-12T11:10:16;102273.34;;;17.74;52.40
48527;BME280;34317;51.660;5.824;2022-10-12T11:12:51;102272.75;;;17.86;52.27
48527;BME280;34317;51.660;5.824;2022-10-12T11:15:28;102270.19;;;18.00;51.52
48527;BME280;34317;51.660;5.824;2022-10-12T11:18:06;102273.34;;;18.08;51.04
48527;BME280;34317;51.660;5.824;2022-10-12T11:21:04;102270.94;;;18.20;51.28
48527;BME280;34317;51.660;5.824;2022-10-12T11:23:51;102259.72;;;18.29;50.90
48527;BME280;34317;51.660;5.824;2022-10-12T11:26:29;102262.91;;;18.36;50.24
48527;BME280;34317;51.660;5.824;2022-10-12T11:29:00;102257.47;;;18.37;49.73
48527;BME280;34317;51.660;5.824;2022-10-12T11:33:59;102253.66;;;18.41;49.29
48527;BME280;34317;51.660;5.824;2022-10-12T11:36:31;102250.59;;;18.47;49.08
48527;BME280;34317;51.660;5.824;2022-10-12T11:39:05;102236.88;;;18.54;48.76
48527;BME280;34317;51.660;5.824;2022-10-12T11:41:39;102241.13;;;18.58;48.98
48527;BME280;34317;51.660;5.824;2022-10-12T11:44:39;102227.34;;;18.64;48.54
48527;BME280;34317;51.660;5.824;2022-10-12T11:47:24;102219.13;;;18.67;48.61
48527;BME280;34317;51.660;5.824;2022-10-12T11:50:22;102212.63;;;18.71;48.20
48527;BME280;34317;51.660;5.824;2022-10-12T11:52:52;102205.19;;;18.76;48.37
48527;BME280;34317;51.660;5.824;2022-10-12T11:58:24;102195.47;;;18.90;48.08
48527;BME280;34317;51.660;5.824;2022-10-12T12:04:19;102205.00;;;18.95;47.57
48527;BME280;34317;51.660;5.824;2022-10-12T12:18:12;102171.72;;;18.98;47.00
48527;BME280;34317;51.660;5.824;2022-10-12T12:23:21;102177.94;;;18.98;46.91
48527;BME280;34317;51.660;5.824;2022-10-12T12:26:05;102173.25;;;19.02;46.87
48527;BME280;34317;51.660;5.824;2022-10-12T12:28:46;102182.84;;;19.06;46.95
48527;BME280;34317;51.660;5.824;2022-10-12T12:31:23;102183.66;;;19.08;46.33
48527;BME280;34317;51.660;5.824;2022-10-12T12:34:12;102181.53;;;19.13;46.61
48527;BME280;34317;51.660;5.824;2022-10-12T12:36:45;102182.91;;;19.20;46.00
48527;BME280;34317;51.660;5.824;2022-10-12T12:39:22;102175.44;;;19.25;46.09
48527;BME280;34317;51.660;5.824;2022-10-12T12:41:55;102168.94;;;19.30;46.23
48527;BME280;34317;51.660;5.824;2022-10-12T12:49:56;102165.69;;;19.39;46.19
48527;BME280;34317;51.660;5.824;2022-10-12T12:52:28;102158.22;;;19.44;46.10
48527;BME280;34317;51.660;5.824;2022-10-12T12:58:04;102144.28;;;19.52;45.52
48527;BME280;34317;51.660;5.824;2022-10-12T13:06:43;102153.47;;;19.48;45.86
48527;BME280;34317;51.660;5.824;2022-10-12T13:09:41;102150.72;;;19.49;46.06
48527;BME280;34317;51.660;5.824;2022-10-12T13:12:20;102145.34;;;19.49;46.60
48527;BME280;34317;51.660;5.824;2022-10-12T13:18:12;102150.53;;;19.52;45.94
48527;BME280;34317;51.660;5.824;2022-10-12T13:21:08;102140.63;;;19.53;45.39
48527;BME280;34317;51.660;5.824;2022-10-12T13:23:38;102143.41;;;19.51;45.09
48527;BME280;34317;51.660;5.824;2022-10-12T13:26:08;102148.59;;;19.54;45.11
48527;BME280;34317;51.660;5.824;2022-10-12T13:28:39;102146.69;;;19.56;44.79
48527;BME280;34317;51.660;5.824;2022-10-12T13:31:20;102138.63;;;19.56;44.55
48527;BME280;34317;51.660;5.824;2022-10-12T13:34:04;102126.94;;;19.57;44.76
48527;BME280;34317;51.660;5.824;2022-10-12T13:36:47;102121.34;;;19.60;44.82
48527;BME280;34317;51.660;5.824;2022-10-12T13:39:18;102122.00;;;19.64;44.46
48527;BME280;34317;51.660;5.824;2022-10-12T13:41:47;102123.75;;;19.65;44.16
48527;BME280;34317;51.660;5.824;2022-10-12T13:44:28;102119.41;;;19.62;44.49
48527;BME280;34317;51.660;5.824;2022-10-12T13:46:57;102113.84;;;19.65;44.61
48527;BME280;34317;51.660;5.824;2022-10-12T13:49:28;102117.22;;;19.69;44.38
48527;BME280;34317;51.660;5.824;2022-10-12T13:52:01;102122.31;;;19.74;44.51
48527;BME280;34317;51.660;5.824;2022-10-12T13:54:46;102112.91;;;19.81;44.34
48527;BME280;34317;51.660;5.824;2022-10-12T14:02:58;102113.66;;;19.97;44.30
48527;BME280;34317;51.660;5.824;2022-10-12T14:05:27;102105.19;;;20.03;44.42
48527;BME280;34317;51.660;5.824;2022-10-12T14:08:02;102105.56;;;20.12;43.92
48527;BME280;34317;51.660;5.824;2022-10-12T14:10:33;102097.09;;;20.18;43.87
48527;BME280;34317;51.660;5.824;2022-10-12T14:13:01;102095.72;;;20.25;43.81
48527;BME280;34317;51.660;5.824;2022-10-12T14:15:33;102100.88;;;20.28;43.10
48527;BME280;34317;51.660;5.824;2022-10-12T14:18:01;102100.88;;;20.28;43.60
48527;BME280;34317;51.660;5.824;2022-10-12T14:22:58;102090.53;;;20.22;42.87
48527;BME280;34317;51.660;5.824;2022-10-12T14:25:28;102078.25;;;20.18;43.11
48527;BME280;34317;51.660;5.824;2022-10-12T14:27:58;102083.84;;;20.15;43.21
48527;BME280;34317;51.660;5.824;2022-10-12T14:30:35;102091.13;;;20.13;43.13
48527;BME280;34317;51.660;5.824;2022-10-12T14:33:19;102082.50;;;20.08;42.86
48527;BME280;34317;51.660;5.824;2022-10-12T14:35:47;102086.34;;;20.03;42.99
48527;BME280;34317;51.660;5.824;2022-10-12T14:38:35;102083.09;;;19.98;43.09
48527;BME280;34317;51.660;5.824;2022-10-12T14:44:05;102081.97;;;19.88;43.40
48527;BME280;34317;51.660;5.824;2022-10-12T14:46:39;102075.75;;;19.88;43.06
48527;BME280;34317;51.660;5.824;2022-10-12T14:49:17;102066.94;;;19.86;43.45
48527;BME280;34317;51.660;5.824;2022-10-12T14:51:45;102066.03;;;19.85;43.31
48527;BME280;34317;51.660;5.824;2022-10-12T14:54:12;102060.66;;;19.85;43.13
48527;BME280;34317;51.660;5.824;2022-10-12T14:56:39;102067.88;;;19.84;43.21